sensor_id;sensor_type;location;lat;lon;timestamp;pressure;altitude;pressure_sealevel;temperature;humidity
62694;BME280;48759;52.544;13.418;2023-04-23T00:02:06;100103.50;;;10.31;100.00
62694;BME280;48759;52.544;13.418;2023-04-23T00:04:36;100097.16;;;10.30;100.00
62694;BME280;48759;52.544;13.418;2023-04-23T00:07:04;100097.81;;;10.26;100.00
62694;BME280;48759;52.544;13.418;2023-04-23T00:09:31;100098.00;;;10.31;100.00
62694;BME280;48759;52.544;13.418;2023-04-23T00:11:59;100100.94;;;10.36;100.00
62694;BME280;48759;52.544;13.418;2023-04-23T00:14:29;100090.81;;;10.30;100.00
62694;BME280;48759;52.544;13.418;2023-04-23T00:16:56;100094.44;;;10.24;100.00
62694;BME280;48759;52.544;13.418;2023-04-23T00:19:22;100091.91;;;10.22;100.00
62694;BME280;48759;52.544;13.418;2023-04-23T00:21:49;100094.88;;;10.21;100.00
62694;BME280;48759;52.544;13.418;2023-04-23T00:24:19;100087.91;;;10.18;100.00
62694;BME280;48759;52.544;13.418;2023-04-23T00:26:45;100086.84;;;10.19;100.00
62694;BME280;48759;52.544;13.418;2023-04-23T00:29:12;100089.81;;;10.18;100.00
62694;BME280;48759;52.544;13.418;2023-04-23T00:31:39;100086.63;;;10.21;100.00
62694;BME280;48759;52.544;13.418;2023-04-23T00:34:06;100081.94;;;10.28;100.00
62694;BME280;48759;52.544;13.418;2023-04-23T00:36:32;100075.78;;;10.32;100.00
62694;BME280;48759;52.544;13.418;2023-04-23T00:38:59;100084.03;;;10.32;100.00
62694;BME280;48759;52.544;13.418;2023-04-23T00:41:27;100082.47;;;10.43;100.00
62694;BME280;48759;52.544;13.418;2023-04-23T00:43:54;100080.72;;;10.49;100.00
62694;BME280;48759;52.544;13.418;2023-04-23T00:46:21;100078.41;;;10.52;100.00
62694;BME280;48759;52.544;13.418;2023-04-23T00:48:49;100072.72;;;10.47;100.00
62694;BME280;48759;52.544;13.418;2023-04-23T00:51:17;100075.25;;;10.55;100.00
62694;BME280;48759;52.544;13.418;2023-04-23T00:53:44;100074.63;;;10.47;100.00
62694;BME280;48759;52.544;13.418;2023-04-23T00:56:11;100069.34;;;10.45;100.00
62694;BME280;48759;52.544;13.418;2023-04-23T00:58:40;100057.06;;;10.48;100.00
62694;BME280;48759;52.544;13.418;2023-04-23T01:01:07;100067.22;;;10.54;100.00
62694;BME280;48759;52.544;13.418;2023-04-23T01:03:35;100065.94;;;10.56;100.00
62694;BME280;48759;52.544;13.418;2023-04-23T01:06:04;100061.47;;;10.55;100.00
62694;BME280;48759;52.544;13.418;2023-04-23T01:08:31;100059.97;;;10.53;100.00
62694;BME280;48759;52.544;13.418;2023-04-23T01:11:01;100060.19;;;10.51;100.00
62694;BME280;48759;52.544;13.418;2023-04-23T01:13:28;100058.50;;;10.50;100.00
62694;BME280;48759;52.544;13.418;2023-04-23T01:15:56;100057.28;;;10.46;100.00
62694;BME280;48759;52.544;13.418;2023-04-23T01:18:23;100059.97;;;10.53;100.00
62694;BME280;48759;52.544;13.418;2023-04-23T01:20:51;100058.72;;;10.49;100.00
62694;BME280;48759;52.544;13.418;2023-04-23T01:23:19;100064.63;;;10.59;100.00
62694;BME280;48759;52.544;13.418;2023-04-23T01:25:46;100055.97;;;10.55;100.00
62694;BME280;48759;52.544;13.418;2023-04-23T01:28:12;100062.09;;;10.57;100.00
62694;BME280;48759;52.544;13.418;2023-04-23T01:30:41;100052.34;;;10.61;100.00
62694;BME280;48759;52.544;13.418;2023-04-23T01:33:09;100059.13;;;10.59;100.00
62694;BME280;48759;52.544;13.418;2023-04-23T01:35:37;100057.44;;;10.58;100.00
62694;BME280;48759;52.544;13.418;2023-04-23T01:38:06;100061.66;;;10.60;100.00
62694;BME280;48759;52.544;13.418;2023-04-23T01:40:36;100061.53;;;10.73;100.00
62694;BME280;48759;52.544;13.418;2023-04-23T01:43:03;100064.56;;;10.65;100.00
62694;BME280;48759;52.544;13.418;2023-04-23T01:45:30;100059.84;;;10.72;100.00
62694;BME280;48759;52.544;13.418;2023-04-23T01:47:57;100066.44;;;10.71;100.00
62694;BME280;48759;52.544;13.418;2023-04-23T01:50:25;100055.16;;;10.80;100.00
62694;BME280;48759;52.544;13.418;2023-04-23T01:52:53;100057.00;;;10.86;100.00
62694;BME280;48759;52.544;13.418;2023-04-23T01:55:20;100055.53;;;10.83;100.00
62694;BME280;48759;52.544;13.418;2023-04-23T01:57:49;100055.16;;;10.80;100.00
62694;BME280;48759;52.544;13.418;2023-04-23T02:00:17;100058.97;;;10.79;100.00
62694;BME280;48759;52.544;13.418;2023-04-23T02:02:46;100053.22;;;10.80;100.00
62694;BME280;48759;52.544;13.418;2023-04-23T02:05:14;100058.50;;;10.82;100.00
62694;BME280;48759;52.544;13.418;2023-04-23T02:07:43;100057.63;;;10.88;100.00
62694;BME280;48759;52.544;13.418;2023-04-23T02:10:10;100045.16;;;10.85;100.00
62694;BME280;48759;52.544;13.418;2023-04-23T02:12:37;100042.00;;;10.82;100.00
62694;BME280;48759;52.544;13.418;2023-04-23T02:15:07;100038.94;;;10.71;100.00
62694;BME280;48759;52.544;13.418;2023-04-23T02:17:34;100048.06;;;10.65;100.00
62694;BME280;48759;52.544;13.418;2023-04-23T02:20:02;100049.03;;;10.46;100.00
62694;BME280;48759;52.544;13.418;2023-04-23T02:22:30;100054.06;;;10.49;100.00
62694;BME280;48759;52.544;13.418;2023-04-23T02:24:56;100037.66;;;10.36;100.00
62694;BME280;48759;52.544;13.418;2023-04-23T02:27:24;100036.88;;;10.29;100.00
62694;BME280;48759;52.544;13.418;2023-04-23T02:29:52;100039.44;;;10.24;100.00
62694;BME280;48759;52.544;13.418;2023-04-23T02:32:20;100039.44;;;10.24;100.00
62694;BME280;48759;52.544;13.418;2023-04-23T02:34:47;100037.31;;;10.26;100.00
62694;BME280;48759;52.544;13.418;2023-04-23T02:37:13;100041.63;;;10.15;100.00
62694;BME280;48759;52.544;13.418;2023-04-23T02:39:40;100039.09;;;10.14;100.00
62694;BME280;48759;52.544;13.418;2023-04-23T02:42:07;100037.22;;;10.08;100.00
62694;BME280;48759;52.544;13.418;2023-04-23T02:44:33;100043.78;;;10.07;100.00
62694;BME280;48759;52.544;13.418;2023-04-23T02:47:00;100043.16;;;10.05;100.00
62694;BME280;48759;52.544;13.418;2023-04-23T02:49:28;100041.91;;;10.01;100.00
62694;BME280;48759;52.544;13.418;2023-04-23T02:51:55;100041.91;;;9.94;100.00
62694;BME280;48759;52.544;13.418;2023-04-23T02:54:22;100039.59;;;9.97;100.00
62694;BME280;48759;52.544;13.418;2023-04-23T02:56:49;100039.84;;;9.89;100.00
62694;BME280;48759;52.544;13.418;2023-04-23T02:59:16;100042.59;;;9.89;100.00
62694;BME280;48759;52.544;13.418;2023-04-23T03:01:43;100035.78;;;9.98;100.00
62694;BME280;48759;52.544;13.418;2023-04-23T03:04:09;100032.56;;;10.08;100.00
62694;BME280;48759;52.544;13.418;2023-04-23T03:06:37;100026.38;;;10.13;100.00
62694;BME280;48759;52.544;13.418;2023-04-23T03:09:04;100024.22;;;10.21;100.00
62694;BME280;48759;52.544;13.418;2023-04-23T03:11:32;100020.81;;;10.26;100.00
62694;BME280;48759;52.544;13.418;2023-04-23T03:13:59;100029.69;;;10.28;100.00
62694;BME280;48759;52.544;13.418;2023-04-23T03:16:26;100026.81;;;10.41;100.00
62694;BME280;48759;52.544;13.418;2023-04-23T03:18:53;100022.41;;;10.40;100.00
62694;BME280;48759;52.544;13.418;2023-04-23T03:21:20;100019.41;;;10.42;100.00
62694;BME280;48759;52.544;13.418;2023-04-23T03:23:48;100027.66;;;10.48;100.00
62694;BME280;48759;52.544;13.418;2023-04-23T03:26:15;100026.13;;;10.52;100.00
62694;BME280;48759;52.544;13.418;2023-04-23T03:28:41;100019.75;;;10.58;100.00
62694;BME280;48759;52.544;13.418;2023-04-23T03:31:08;100026.31;;;10.57;100.00
62694;BME280;48759;52.544;13.418;2023-04-23T03:33:35;100026.94;;;10.59;100.00
62694;BME280;48759;52.544;13.418;2023-04-23T03:36:02;100030.69;;;10.65;100.00
62694;BME280;48759;52.544;13.418;2023-04-23T03:38:29;100020.59;;;10.59;100.00
62694;BME280;48759;52.544;13.418;2023-04-23T03:40:57;100026.94;;;10.59;100.00
62694;BME280;48759;52.544;13.418;2023-04-23T03:43:24;100015.56;;;10.49;100.00
62694;BME280;48759;52.544;13.418;2023-04-23T03:45:51;100014.94;;;10.47;100.00
62694;BME280;48759;52.544;13.418;2023-04-23T03:48:17;100014.94;;;10.47;100.00
62694;BME280;48759;52.544;13.418;2023-04-23T03:50:45;100021.91;;;10.56;100.00
62694;BME280;48759;52.544;13.418;2023-04-23T03:53:11;100022.34;;;10.53;100.00
62694;BME280;48759;52.544;13.418;2023-04-23T03:55:38;100029.78;;;10.46;100.00
62694;BME280;48759;52.544;13.418;2023-04-23T03:58:06;100012.63;;;10.44;100.00
62694;BME280;48759;52.544;13.418;2023-04-23T04:00:33;100015.81;;;10.41;100.00
62694;BME280;48759;52.544;13.418;2023-04-23T04:03:00;100015.56;;;10.49;100.00
62694;BME280;48759;52.544;13.418;2023-04-23T04:05:27;100009.81;;;10.57;100.00
62694;BME280;48759;52.544;13.418;2023-04-23T04:07:54;100010.84;;;10.63;100.00
62694;BME280;48759;52.544;13.418;2023-04-23T04:10:21;100010.78;;;10.69;100.00
62694;BME280;48759;52.544;13.418;2023-04-23T04:12:47;100010.38;;;10.66;100.00
62694;BME280;48759;52.544;13.418;2023-04-23T04:15:16;99995.31;;;10.68;100.00
62694;BME280;48759;52.544;13.418;2023-04-23T04:17:44;99998.53;;;10.65;100.00
62694;BME280;48759;52.544;13.418;2023-04-23T04:20:11;100008.69;;;10.65;100.00
62694;BME280;48759;52.544;13.418;2023-04-23T04:22:38;100006.13;;;10.70;100.00
62694;BME280;48759;52.544;13.418;2023-04-23T04:25:06;100010.59;;;10.64;100.00
62694;BME280;48759;52.544;13.418;2023-04-23T04:27:33;100003.09;;;10.53;100.00
62694;BME280;48759;52.544;13.418;2023-04-23T04:30:00;100011.34;;;10.53;100.00
62694;BME280;48759;52.544;13.418;2023-04-23T04:32:28;100006.22;;;10.57;100.00
62694;BME280;48759;52.544;13.418;2023-04-23T04:34:56;100007.81;;;10.71;100.00
62694;BME280;48759;52.544;13.418;2023-04-23T04:37:23;99999.78;;;10.69;100.00
62694;BME280;48759;52.544;13.418;2023-04-23T04:39:51;100004.72;;;10.86;100.00
62694;BME280;48759;52.544;13.418;2023-04-23T04:42:18;100000.69;;;10.82;100.00
62694;BME280;48759;52.544;13.418;2023-04-23T04:44:45;100004.19;;;10.95;100.00
62694;BME280;48759;52.544;13.418;2023-04-23T04:47:12;100016.94;;;10.90;100.00
62694;BME280;48759;52.544;13.418;2023-04-23T04:49:42;100015.13;;;11.02;100.00
62694;BME280;48759;52.544;13.418;2023-04-23T04:52:09;100025.09;;;11.21;100.00
62694;BME280;48759;52.544;13.418;2023-04-23T04:54:36;100023.09;;;11.28;100.00
62694;BME280;48759;52.544;13.418;2023-04-23T04:57:02;100022.13;;;11.41;100.00
62694;BME280;48759;52.544;13.418;2023-04-23T04:59:29;100024.06;;;11.40;100.00
62694;BME280;48759;52.544;13.418;2023-04-23T05:01:56;100017.91;;;11.20;100.00
62694;BME280;48759;52.544;13.418;2023-04-23T05:04:23;100024.03;;;11.22;100.00
62694;BME280;48759;52.544;13.418;2023-04-23T05:06:52;100017.59;;;11.10;100.00
62694;BME280;48759;52.544;13.418;2023-04-23T05:09:18;100024.00;;;11.04;100.00
62694;BME280;48759;52.544;13.418;2023-04-23T05:11:45;100027.59;;;11.04;100.00
62694;BME280;48759;52.544;13.418;2023-04-23T05:14:11;100030.13;;;11.06;100.00
62694;BME280;48759;52.544;13.418;2023-04-23T05:16:38;100025.47;;;11.06;100.00
62694;BME280;48759;52.544;13.418;2023-04-23T05:19:05;100027.38;;;11.06;100.00
62694;BME280;48759;52.544;13.418;2023-04-23T05:21:32;100024.47;;;11.01;100.00
62694;BME280;48759;52.544;13.418;2023-04-23T05:24:00;100034.13;;;11.10;100.00
62694;BME280;48759;52.544;13.418;2023-04-23T05:26:28;100031.38;;;11.28;100.00
62694;BME280;48759;52.544;13.418;2023-04-23T05:28:54;100032.75;;;11.37;100.00
62694;BME280;48759;52.544;13.418;2023-04-23T05:31:21;100030.25;;;11.54;100.00
62694;BME280;48759;52.544;13.418;2023-04-23T05:33:48;100036.94;;;11.65;100.00
62694;BME280;48759;52.544;13.418;2023-04-23T05:36:14;100035.56;;;11.74;100.00
62694;BME280;48759;52.544;13.418;2023-04-23T05:38:41;100031.56;;;11.88;100.00
62694;BME280;48759;52.544;13.418;2023-04-23T05:41:09;100034.75;;;11.85;100.00
62694;BME280;48759;52.544;13.418;2023-04-23T05:43:36;100030.03;;;11.74;100.00
62694;BME280;48759;52.544;13.418;2023-04-23T05:46:03;100041.84;;;11.81;100.00
62694;BME280;48759;52.544;13.418;2023-04-23T05:48:31;100056.03;;;11.60;100.00
62694;BME280;48759;52.544;13.418;2023-04-23T05:50:58;100049.47;;;11.61;100.00
62694;BME280;48759;52.544;13.418;2023-04-23T05:53:26;100050.50;;;11.60;100.00
62694;BME280;48759;52.544;13.418;2023-04-23T05:55:54;100050.22;;;11.49;100.00
62694;BME280;48759;52.544;13.418;2023-04-23T05:58:23;100047.63;;;11.55;100.00
62694;BME280;48759;52.544;13.418;2023-04-23T06:00:50;100049.16;;;11.69;100.00
62694;BME280;48759;52.544;13.418;2023-04-23T06:03:18;100043.34;;;11.77;100.00
62694;BME280;48759;52.544;13.418;2023-04-23T06:05:44;100053.75;;;11.75;100.00
62694;BME280;48759;52.544;13.418;2023-04-23T06:08:12;100043.13;;;11.78;100.00
62694;BME280;48759;52.544;13.418;2023-04-23T06:10:39;100039.66;;;11.83;100.00
62694;BME280;48759;52.544;13.418;2023-04-23T06:13:06;100037.69;;;11.72;100.00
62694;BME280;48759;52.544;13.418;2023-04-23T06:15:34;100049.31;;;11.92;100.00
62694;BME280;48759;52.544;13.418;2023-04-23T06:18:01;100045.28;;;12.06;100.00
62694;BME280;48759;52.544;13.418;2023-04-23T06:20:28;100054.00;;;12.21;100.00
62694;BME280;48759;52.544;13.418;2023-04-23T06:22:55;100056.53;;;12.23;100.00
62694;BME280;48759;52.544;13.418;2023-04-23T06:25:22;100055.22;;;12.25;100.00
62694;BME280;48759;52.544;13.418;2023-04-23T06:27:50;100051.38;;;12.26;100.00
62694;BME280;48759;52.544;13.418;2023-04-23T06:30:16;100052.91;;;12.52;100.00
62694;BME280;48759;52.544;13.418;2023-04-23T06:32:45;100056.09;;;12.38;100.00
62694;BME280;48759;52.544;13.418;2023-04-23T06:35:11;100053.88;;;12.58;100.00
62694;BME280;48759;52.544;13.418;2023-04-23T06:37:38;100047.97;;;12.54;100.00
62694;BME280;48759;52.544;13.418;2023-04-23T06:40:06;100055.56;;;12.59;100.00
62694;BME280;48759;52.544;13.418;2023-04-23T06:42:32;100055.69;;;12.52;100.00
62694;BME280;48759;52.544;13.418;2023-04-23T06:44:59;100048.66;;;12.38;100.00
62694;BME280;48759;52.544;13.418;2023-04-23T06:47:28;100050.78;;;12.24;100.00
62694;BME280;48759;52.544;13.418;2023-04-23T06:49:56;100048.41;;;12.28;100.00
62694;BME280;48759;52.544;13.418;2023-04-23T06:52:24;100054.38;;;12.25;100.00
62694;BME280;48759;52.544;13.418;2023-04-23T06:54:50;100045.38;;;12.00;100.00
62694;BME280;48759;52.544;13.418;2023-04-23T06:57:17;100050.81;;;12.06;100.00
62694;BME280;48759;52.544;13.418;2023-04-23T06:59:44;100054.91;;;11.85;100.00
62694;BME280;48759;52.544;13.418;2023-04-23T07:02:10;100055.09;;;11.72;100.00
62694;BME280;48759;52.544;13.418;2023-04-23T07:04:37;100065.34;;;11.65;100.00
62694;BME280;48759;52.544;13.418;2023-04-23T07:07:05;100063.94;;;11.74;100.00
62694;BME280;48759;52.544;13.418;2023-04-23T07:09:31;100074.47;;;11.66;100.00
62694;BME280;48759;52.544;13.418;2023-04-23T07:11:58;100067.03;;;11.23;100.00
62694;BME280;48759;52.544;13.418;2023-04-23T07:14:25;100077.78;;;11.06;100.00
62694;BME280;48759;52.544;13.418;2023-04-23T07:16:52;100080.16;;;10.78;100.00
62694;BME280;48759;52.544;13.418;2023-04-23T07:19:19;100076.38;;;10.72;100.00
62694;BME280;48759;52.544;13.418;2023-04-23T07:21:46;100078.16;;;10.60;100.00
62694;BME280;48759;52.544;13.418;2023-04-23T07:24:14;100079.97;;;10.35;100.00
62694;BME280;48759;52.544;13.418;2023-04-23T07:26:41;100081.66;;;10.36;100.00
62694;BME280;48759;52.544;13.418;2023-04-23T07:29:08;100078.25;;;10.41;100.00
62694;BME280;48759;52.544;13.418;2023-04-23T07:31:35;100076.25;;;10.23;100.00
62694;BME280;48759;52.544;13.418;2023-04-23T07:34:07;100083.25;;;10.19;100.00
62694;BME280;48759;52.544;13.418;2023-04-23T07:36:34;100085.75;;;10.27;100.00
62694;BME280;48759;52.544;13.418;2023-04-23T07:39:01;100087.13;;;10.43;100.00
62694;BME280;48759;52.544;13.418;2023-04-23T07:41:31;100088.78;;;10.50;100.00
62694;BME280;48759;52.544;13.418;2023-04-23T07:43:57;100086.25;;;10.55;100.00
62694;BME280;48759;52.544;13.418;2023-04-23T07:46:24;100095.91;;;10.64;100.00
62694;BME280;48759;52.544;13.418;2023-04-23T07:48:50;100096.16;;;10.88;100.00
62694;BME280;48759;52.544;13.418;2023-04-23T07:51:18;100093.22;;;10.83;100.00
62694;BME280;48759;52.544;13.418;2023-04-23T07:53:47;100091.88;;;10.92;100.00
62694;BME280;48759;52.544;13.418;2023-04-23T07:56:15;100097.63;;;11.15;100.00
62694;BME280;48759;52.544;13.418;2023-04-23T07:58:43;100092.09;;;11.15;100.00
62694;BME280;48759;52.544;13.418;2023-04-23T08:01:10;100096.94;;;11.20;100.00
62694;BME280;48759;52.544;13.418;2023-04-23T08:03:36;100095.31;;;11.12;100.00
62694;BME280;48759;52.544;13.418;2023-04-23T08:06:03;100096.69;;;11.21;100.00
62694;BME280;48759;52.544;13.418;2023-04-23T08:08:30;100100.66;;;11.07;100.00
62694;BME280;48759;52.544;13.418;2023-04-23T08:10:57;100099.25;;;11.23;100.00
62694;BME280;48759;52.544;13.418;2023-04-23T08:13:23;100100.31;;;11.22;100.00
62694;BME280;48759;52.544;13.418;2023-04-23T08:15:52;100104.88;;;11.09;100.00
62694;BME280;48759;52.544;13.418;2023-04-23T08:18:19;100104.25;;;11.07;100.00
62694;BME280;48759;52.544;13.418;2023-04-23T08:20:46;100106.38;;;11.30;100.00
62694;BME280;48759;52.544;13.418;2023-04-23T08:23:13;100102.69;;;11.18;100.00
62694;BME280;48759;52.544;13.418;2023-04-23T08:25:41;100097.38;;;11.41;100.00
62694;BME280;48759;52.544;13.418;2023-04-23T08:28:08;100094.34;;;11.68;100.00
62694;BME280;48759;52.544;13.418;2023-04-23T08:30:34;100094.53;;;11.73;100.00
62694;BME280;48759;52.544;13.418;2023-04-23T08:33:02;100097.69;;;12.06;100.00
62694;BME280;48759;52.544;13.418;2023-04-23T08:35:29;100101.16;;;12.20;100.00
62694;BME280;48759;52.544;13.418;2023-04-23T08:37:56;100100.56;;;12.30;100.00
62694;BME280;48759;52.544;13.418;2023-04-23T08:40:23;100097.47;;;12.38;100.00
62694;BME280;48759;52.544;13.418;2023-04-23T08:42:55;100100.75;;;12.46;100.00
62694;BME280;48759;52.544;13.418;2023-04-23T08:45:23;100091.78;;;12.51;100.00
62694;BME280;48759;52.544;13.418;2023-04-23T08:47:50;100098.81;;;12.65;100.00
62694;BME280;48759;52.544;13.418;2023-04-23T08:50:18;100101.97;;;12.80;100.00
62694;BME280;48759;52.544;13.418;2023-04-23T08:52:46;100099.88;;;13.06;100.00
62694;BME280;48759;52.544;13.418;2023-04-23T08:55:15;100095.06;;;13.83;100.00
62694;BME280;48759;52.544;13.418;2023-04-23T08:57:45;100086.31;;;14.14;100.00
62694;BME280;48759;52.544;13.418;2023-04-23T09:00:15;100098.63;;;13.95;100.00
62694;BME280;48759;52.544;13.418;2023-04-23T09:02:45;100099.44;;;13.78;100.00
62694;BME280;48759;52.544;13.418;2023-04-23T09:05:12;100104.19;;;13.48;100.00
62694;BME280;48759;52.544;13.418;2023-04-23T09:07:41;100100.78;;;12.76;100.00
62694;BME280;48759;52.544;13.418;2023-04-23T09:10:09;100111.00;;;12.27;100.00
62694;BME280;48759;52.544;13.418;2023-04-23T09:12:38;100107.69;;;11.71;100.00
62694;BME280;48759;52.544;13.418;2023-04-23T09:15:06;100108.00;;;11.38;100.00
62694;BME280;48759;52.544;13.418;2023-04-23T09:17:37;100110.88;;;11.00;100.00
62694;BME280;48759;52.544;13.418;2023-04-23T09:20:06;100108.28;;;11.05;100.00
62694;BME280;48759;52.544;13.418;2023-04-23T09:22:42;100105.38;;;11.00;100.00
62694;BME280;48759;52.544;13.418;2023-04-23T09:25:11;100123.06;;;10.86;100.00
62694;BME280;48759;52.544;13.418;2023-04-23T09:27:38;100121.66;;;10.77;100.00
62694;BME280;48759;52.544;13.418;2023-04-23T09:30:07;100116.59;;;10.73;100.00
62694;BME280;48759;52.544;13.418;2023-04-23T09:32:35;100114.88;;;10.72;100.00
62694;BME280;48759;52.544;13.418;2023-04-23T09:35:02;100123.88;;;10.61;100.00
62694;BME280;48759;52.544;13.418;2023-04-23T09:37:30;100129.53;;;10.66;100.00
62694;BME280;48759;52.544;13.418;2023-04-23T09:40:06;100138.38;;;10.37;100.00
62694;BME280;48759;52.544;13.418;2023-04-23T09:42:36;100138.56;;;9.97;100.00
62694;BME280;48759;52.544;13.418;2023-04-23T09:45:05;100144.28;;;9.89;100.00
62694;BME280;48759;52.544;13.418;2023-04-23T09:47:33;100146.47;;;9.68;100.00
62694;BME280;48759;52.544;13.418;2023-04-23T09:50:00;100144.56;;;9.55;100.00
62694;BME280;48759;52.544;13.418;2023-04-23T09:52:30;100147.56;;;9.53;100.00
62694;BME280;48759;52.544;13.418;2023-04-23T09:55:01;100162.13;;;9.54;100.00
62694;BME280;48759;52.544;13.418;2023-04-23T09:57:30;100149.88;;;9.50;100.00
62694;BME280;48759;52.544;13.418;2023-04-23T10:00:11;100155.19;;;9.45;100.00
62694;BME280;48759;52.544;13.418;2023-04-23T10:02:39;100158.31;;;9.55;100.00
62694;BME280;48759;52.544;13.418;2023-04-23T10:05:14;100148.00;;;9.44;100.00
62694;BME280;48759;52.544;13.418;2023-04-23T10:07:44;100151.75;;;9.63;100.00
62694;BME280;48759;52.544;13.418;2023-04-23T10:10:20;100155.13;;;9.65;100.00
62694;BME280;48759;52.544;13.418;2023-04-23T10:12:46;100155.97;;;9.65;100.00
62694;BME280;48759;52.544;13.418;2023-04-23T10:15:16;100162.69;;;9.82;100.00
62694;BME280;48759;52.544;13.418;2023-04-23T10:17:43;100165.03;;;9.79;100.00
62694;BME280;48759;52.544;13.418;2023-04-23T10:20:12;100169.50;;;9.67;100.00
62694;BME280;48759;52.544;13.418;2023-04-23T10:22:40;100163.16;;;9.66;100.00
62694;BME280;48759;52.544;13.418;2023-04-23T10:25:10;100172.22;;;9.73;100.00
62694;BME280;48759;52.544;13.418;2023-04-23T10:27:42;100173.69;;;9.82;100.00
62694;BME280;48759;52.544;13.418;2023-04-23T10:30:11;100175.75;;;10.07;100.00
62694;BME280;48759;52.544;13.418;2023-04-23T10:32:39;100176.06;;;10.30;100.00
62694;BME280;48759;52.544;13.418;2023-04-23T10:35:08;100173.25;;;10.43;100.00
62694;BME280;48759;52.544;13.418;2023-04-23T10:37:35;100169.25;;;10.84;100.00
62694;BME280;48759;52.544;13.418;2023-04-23T10:40:06;100168.44;;;11.08;100.00
62694;BME280;48759;52.544;13.418;2023-04-23T10:42:36;100165.69;;;11.33;100.00
62694;BME280;48759;52.544;13.418;2023-04-23T10:45:11;100151.72;;;11.28;100.00
62694;BME280;48759;52.544;13.418;2023-04-23T10:47:41;100151.28;;;11.31;100.00
62694;BME280;48759;52.544;13.418;2023-04-23T10:50:18;100161.75;;;11.90;100.00
62694;BME280;48759;52.544;13.418;2023-04-23T10:52:47;100156.22;;;12.26;100.00
62694;BME280;48759;52.544;13.418;2023-04-23T10:55:18;100146.81;;;12.64;100.00
62694;BME280;48759;52.544;13.418;2023-04-23T10:57:59;100156.16;;;12.93;100.00
62694;BME280;48759;52.544;13.418;2023-04-23T11:00:42;100156.34;;;13.33;100.00
62694;BME280;48759;52.544;13.418;2023-04-23T11:03:31;100166.25;;;13.64;100.00
62694;BME280;48759;52.544;13.418;2023-04-23T11:06:04;100173.59;;;13.58;100.00
62694;BME280;48759;52.544;13.418;2023-04-23T11:08:34;100163.75;;;13.86;100.00
62694;BME280;48759;52.544;13.418;2023-04-23T11:11:05;100166.59;;;13.56;100.00
62694;BME280;48759;52.544;13.418;2023-04-23T11:13:32;100161.84;;;13.10;100.00
62694;BME280;48759;52.544;13.418;2023-04-23T11:16:14;100159.84;;;12.57;100.00
62694;BME280;48759;52.544;13.418;2023-04-23T11:18:58;100156.03;;;12.58;100.00
62694;BME280;48759;52.544;13.418;2023-04-23T11:22:00;100165.94;;;12.77;100.00
62694;BME280;48759;52.544;13.418;2023-04-23T11:24:28;100163.81;;;13.32;100.00
62694;BME280;48759;52.544;13.418;2023-04-23T11:26:55;100161.22;;;13.61;100.00
62694;BME280;48759;52.544;13.418;2023-04-23T11:29:23;100160.19;;;13.32;100.00
62694;BME280;48759;52.544;13.418;2023-04-23T11:31:52;100160.94;;;13.39;100.00
62694;BME280;48759;52.544;13.418;2023-04-23T11:34:19;100163.19;;;13.19;100.00
62694;BME280;48759;52.544;13.418;2023-04-23T11:36:47;100162.97;;;13.20;100.00
62694;BME280;48759;52.544;13.418;2023-04-23T11:39:14;100178.19;;;12.99;100.00
62694;BME280;48759;52.544;13.418;2023-04-23T11:41:43;100177.47;;;12.74;100.00
62694;BME280;48759;52.544;13.418;2023-04-23T11:44:11;100175.66;;;12.68;100.00
62694;BME280;48759;52.544;13.418;2023-04-23T11:46:37;100177.16;;;12.82;100.00
62694;BME280;48759;52.544;13.418;2023-04-23T11:49:06;100183.31;;;12.96;100.00
62694;BME280;48759;52.544;13.418;2023-04-23T11:51:35;100180.78;;;12.94;100.00
62694;BME280;48759;52.544;13.418;2023-04-23T11:54:06;100169.44;;;13.26;100.00
62694;BME280;48759;52.544;13.418;2023-04-23T11:56:33;100165.97;;;13.42;100.00
62694;BME280;48759;52.544;13.418;2023-04-23T11:59:00;100161.41;;;13.36;100.00
62694;BME280;48759;52.544;13.418;2023-04-23T12:01:39;100168.59;;;13.14;100.00
62694;BME280;48759;52.544;13.418;2023-04-23T12:04:15;100164.50;;;13.05;100.00
62694;BME280;48759;52.544;13.418;2023-04-23T12:06:44;100157.53;;;13.14;100.00
62694;BME280;48759;52.544;13.418;2023-04-23T12:09:11;100160.53;;;13.12;100.00
62694;BME280;48759;52.544;13.418;2023-04-23T12:11:39;100153.84;;;13.31;100.00
62694;BME280;48759;52.544;13.418;2023-04-23T12:14:07;100164.78;;;13.38;100.00
62694;BME280;48759;52.544;13.418;2023-04-23T12:16:38;100161.22;;;13.61;100.00
62694;BME280;48759;52.544;13.418;2023-04-23T12:19:08;100170.00;;;13.58;100.00
62694;BME280;48759;52.544;13.418;2023-04-23T12:21:48;100171.66;;;14.45;100.00
62694;BME280;48759;52.544;13.418;2023-04-23T12:24:15;100174.75;;;14.89;100.00
62694;BME280;48759;52.544;13.418;2023-04-23T12:26:42;100172.31;;;14.76;100.00
62694;BME280;48759;52.544;13.418;2023-04-23T12:29:08;100176.56;;;14.95;100.00
62694;BME280;48759;52.544;13.418;2023-04-23T12:31:38;100174.19;;;14.87;100.00
62694;BME280;48759;52.544;13.418;2023-04-23T12:34:07;100173.00;;;14.83;100.00
62694;BME280;48759;52.544;13.418;2023-04-23T12:36:34;100179.63;;;15.27;100.00